sensor_id;sensor_type;location;lat;lon;timestamp;temperature;humidity
19945;DHT22;10134;50.952;6.930;2023-09-18T00:00:03;23.00;99.90
19945;DHT22;10134;50.952;6.930;2023-09-18T00:02:35;23.00;99.90
19945;DHT22;10134;50.952;6.930;2023-09-18T00:05:04;23.00;99.90
19945;DHT22;10134;50.952;6.930;2023-09-18T00:07:34;23.00;99.90
19945;DHT22;10134;50.952;6.930;2023-09-18T00:10:04;23.00;99.90
19945;DHT22;10134;50.952;6.930;2023-09-18T00:12:33;23.00;99.90
19945;DHT22;10134;50.952;6.930;2023-09-18T00:15:02;22.90;99.90
19945;DHT22;10134;50.952;6.930;2023-09-18T00:17:31;22.90;99.90
19945;DHT22;10134;50.952;6.930;2023-09-18T00:20:00;22.90;99.90
19945;DHT22;10134;50.952;6.930;2023-09-18T00:22:29;22.90;99.90
19945;DHT22;10134;50.952;6.930;2023-09-18T00:24:59;22.90;99.90
19945;DHT22;10134;50.952;6.930;2023-09-18T00:27:28;22.90;99.90
19945;DHT22;10134;50.952;6.930;2023-09-18T00:29:57;22.90;99.90
19945;DHT22;10134;50.952;6.930;2023-09-18T00:32:27;22.90;99.90
19945;DHT22;10134;50.952;6.930;2023-09-18T00:34:56;22.90;99.90
19945;DHT22;10134;50.952;6.930;2023-09-18T00:37:24;22.80;99.90
19945;DHT22;10134;50.952;6.930;2023-09-18T00:39:53;22.80;99.90
19945;DHT22;10134;50.952;6.930;2023-09-18T00:42:23;22.80;99.90
19945;DHT22;10134;50.952;6.930;2023-09-18T00:44:52;22.80;99.90
19945;DHT22;10134;50.952;6.930;2023-09-18T00:47:20;22.80;99.90
19945;DHT22;10134;50.952;6.930;2023-09-18T00:49:50;22.80;99.90
19945;DHT22;10134;50.952;6.930;2023-09-18T00:52:22;22.80;99.90
19945;DHT22;10134;50.952;6.930;2023-09-18T00:54:52;22.80;99.90
19945;DHT22;10134;50.952;6.930;2023-09-18T00:57:24;22.80;99.90
19945;DHT22;10134;50.952;6.930;2023-09-18T00:59:53;22.80;99.90
19945;DHT22;10134;50.952;6.930;2023-09-18T01:02:21;22.70;99.90
19945;DHT22;10134;50.952;6.930;2023-09-18T01:04:50;22.70;99.90
19945;DHT22;10134;50.952;6.930;2023-09-18T01:07:19;22.70;99.90
19945;DHT22;10134;50.952;6.930;2023-09-18T01:09:47;22.70;99.90
19945;DHT22;10134;50.952;6.930;2023-09-18T01:12:21;22.70;99.90
19945;DHT22;10134;50.952;6.930;2023-09-18T01:15:00;22.60;99.90
19945;DHT22;10134;50.952;6.930;2023-09-18T01:17:35;22.60;99.90
19945;DHT22;10134;50.952;6.930;2023-09-18T01:20:09;22.60;99.90
19945;DHT22;10134;50.952;6.930;2023-09-18T01:22:39;22.60;99.90
19945;DHT22;10134;50.952;6.930;2023-09-18T01:25:08;22.60;99.90
19945;DHT22;10134;50.952;6.930;2023-09-18T01:27:37;22.60;99.90
19945;DHT22;10134;50.952;6.930;2023-09-18T01:30:06;22.60;99.90
19945;DHT22;10134;50.952;6.930;2023-09-18T01:32:36;22.60;99.90
19945;DHT22;10134;50.952;6.930;2023-09-18T01:35:06;22.60;99.90
19945;DHT22;10134;50.952;6.930;2023-09-18T01:37:37;22.60;99.90
19945;DHT22;10134;50.952;6.930;2023-09-18T01:40:08;22.50;99.90
19945;DHT22;10134;50.952;6.930;2023-09-18T01:42:39;22.50;99.90
19945;DHT22;10134;50.952;6.930;2023-09-18T01:45:09;22.50;99.90
19945;DHT22;10134;50.952;6.930;2023-09-18T01:47:38;22.50;99.90
19945;DHT22;10134;50.952;6.930;2023-09-18T01:50:07;22.50;99.90
19945;DHT22;10134;50.952;6.930;2023-09-18T01:52:37;22.50;99.90
19945;DHT22;10134;50.952;6.930;2023-09-18T01:55:09;22.50;99.90
19945;DHT22;10134;50.952;6.930;2023-09-18T01:57:38;22.50;99.90
19945;DHT22;10134;50.952;6.930;2023-09-18T02:00:07;22.50;99.90
19945;DHT22;10134;50.952;6.930;2023-09-18T02:02:39;22.50;99.90
19945;DHT22;10134;50.952;6.930;2023-09-18T02:05:28;22.50;99.90
19945;DHT22;10134;50.952;6.930;2023-09-18T02:07:57;22.50;99.90
19945;DHT22;10134;50.952;6.930;2023-09-18T02:10:27;22.50;99.90
19945;DHT22;10134;50.952;6.930;2023-09-18T02:12:56;22.50;99.90
19945;DHT22;10134;50.952;6.930;2023-09-18T02:15:24;22.40;99.90
19945;DHT22;10134;50.952;6.930;2023-09-18T02:17:53;22.40;99.90
19945;DHT22;10134;50.952;6.930;2023-09-18T02:20:22;22.40;99.90
19945;DHT22;10134;50.952;6.930;2023-09-18T02:22:51;22.40;99.90
19945;DHT22;10134;50.952;6.930;2023-09-18T02:25:20;22.40;99.90
19945;DHT22;10134;50.952;6.930;2023-09-18T02:27:50;22.40;99.90
19945;DHT22;10134;50.952;6.930;2023-09-18T02:30:19;22.40;99.90
19945;DHT22;10134;50.952;6.930;2023-09-18T02:32:47;22.40;99.90
19945;DHT22;10134;50.952;6.930;2023-09-18T02:35:16;22.40;99.90
19945;DHT22;10134;50.952;6.930;2023-09-18T02:37:45;22.40;99.90
19945;DHT22;10134;50.952;6.930;2023-09-18T02:40:13;22.40;99.90
19945;DHT22;10134;50.952;6.930;2023-09-18T02:42:42;22.40;99.90
19945;DHT22;10134;50.952;6.930;2023-09-18T02:45:12;22.40;99.90
19945;DHT22;10134;50.952;6.930;2023-09-18T02:47:41;22.40;99.90
19945;DHT22;10134;50.952;6.930;2023-09-18T02:50:10;22.40;99.90
19945;DHT22;10134;50.952;6.930;2023-09-18T02:52:39;22.40;99.90
19945;DHT22;10134;50.952;6.930;2023-09-18T02:55:08;22.40;99.90
19945;DHT22;10134;50.952;6.930;2023-09-18T02:57:37;22.40;99.90
19945;DHT22;10134;50.952;6.930;2023-09-18T03:00:07;22.40;99.90
19945;DHT22;10134;50.952;6.930;2023-09-18T03:02:37;22.40;99.90
19945;DHT22;10134;50.952;6.930;2023-09-18T03:05:06;22.40;99.90
19945;DHT22;10134;50.952;6.930;2023-09-18T03:07:36;22.40;99.90
19945;DHT22;10134;50.952;6.930;2023-09-18T03:10:06;22.40;99.90
19945;DHT22;10134;50.952;6.930;2023-09-18T03:12:35;22.40;99.90
19945;DHT22;10134;50.952;6.930;2023-09-18T03:15:05;22.40;99.90
19945;DHT22;10134;50.952;6.930;2023-09-18T03:17:36;22.40;99.90
19945;DHT22;10134;50.952;6.930;2023-09-18T03:20:06;22.40;99.90
19945;DHT22;10134;50.952;6.930;2023-09-18T03:22:35;22.40;99.90
19945;DHT22;10134;50.952;6.930;2023-09-18T03:25:05;22.40;99.90
19945;DHT22;10134;50.952;6.930;2023-09-18T03:27:34;22.40;99.90
19945;DHT22;10134;50.952;6.930;2023-09-18T03:30:03;22.40;99.90
19945;DHT22;10134;50.952;6.930;2023-09-18T03:32:32;22.40;99.90
19945;DHT22;10134;50.952;6.930;2023-09-18T03:35:03;22.40;99.90
19945;DHT22;10134;50.952;6.930;2023-09-18T03:37:31;22.40;99.90
19945;DHT22;10134;50.952;6.930;2023-09-18T03:40:00;22.40;99.90
19945;DHT22;10134;50.952;6.930;2023-09-18T03:42:30;22.30;99.90
19945;DHT22;10134;50.952;6.930;2023-09-18T03:44:58;22.30;99.90
19945;DHT22;10134;50.952;6.930;2023-09-18T03:47:27;22.30;99.90
19945;DHT22;10134;50.952;6.930;2023-09-18T03:49:56;22.30;99.90
19945;DHT22;10134;50.952;6.930;2023-09-18T03:52:27;22.30;99.90
19945;DHT22;10134;50.952;6.930;2023-09-18T03:54:56;22.30;99.90
19945;DHT22;10134;50.952;6.930;2023-09-18T03:57:25;22.30;99.90
19945;DHT22;10134;50.952;6.930;2023-09-18T03:59:54;22.30;99.90
19945;DHT22;10134;50.952;6.930;2023-09-18T04:02:25;22.30;99.90
19945;DHT22;10134;50.952;6.930;2023-09-18T04:04:54;22.20;99.90
19945;DHT22;10134;50.952;6.930;2023-09-18T04:07:23;22.20;99.90
19945;DHT22;10134;50.952;6.930;2023-09-18T04:09:53;22.20;99.90
19945;DHT22;10134;50.952;6.930;2023-09-18T04:12:22;22.20;99.90
19945;DHT22;10134;50.952;6.930;2023-09-18T04:14:51;22.20;99.90
19945;DHT22;10134;50.952;6.930;2023-09-18T04:17:19;22.20;99.90
19945;DHT22;10134;50.952;6.930;2023-09-18T04:19:51;22.20;99.90
19945;DHT22;10134;50.952;6.930;2023-09-18T04:22:19;22.20;99.90
19945;DHT22;10134;50.952;6.930;2023-09-18T04:24:48;22.20;99.90
19945;DHT22;10134;50.952;6.930;2023-09-18T04:27:18;22.10;99.90
19945;DHT22;10134;50.952;6.930;2023-09-18T04:29:47;22.10;99.90
19945;DHT22;10134;50.952;6.930;2023-09-18T04:32:16;22.10;99.90
19945;DHT22;10134;50.952;6.930;2023-09-18T04:34:45;22.10;99.90
19945;DHT22;10134;50.952;6.930;2023-09-18T04:37:14;22.10;99.90
19945;DHT22;10134;50.952;6.930;2023-09-18T04:39:42;22.10;99.90
19945;DHT22;10134;50.952;6.930;2023-09-18T04:42:12;22.10;99.90
19945;DHT22;10134;50.952;6.930;2023-09-18T04:44:42;22.10;99.90
19945;DHT22;10134;50.952;6.930;2023-09-18T04:47:11;22.10;99.90
19945;DHT22;10134;50.952;6.930;2023-09-18T04:49:40;22.00;99.90
19945;DHT22;10134;50.952;6.930;2023-09-18T04:52:08;22.00;99.90
19945;DHT22;10134;50.952;6.930;2023-09-18T04:54:37;22.00;99.90
19945;DHT22;10134;50.952;6.930;2023-09-18T04:57:06;22.00;99.90
19945;DHT22;10134;50.952;6.930;2023-09-18T04:59:35;22.00;99.90
19945;DHT22;10134;50.952;6.930;2023-09-18T05:02:05;22.00;99.90
19945;DHT22;10134;50.952;6.930;2023-09-18T05:04:34;22.00;99.90
19945;DHT22;10134;50.952;6.930;2023-09-18T05:07:03;22.00;99.90
19945;DHT22;10134;50.952;6.930;2023-09-18T05:09:33;22.00;99.90
19945;DHT22;10134;50.952;6.930;2023-09-18T05:12:04;22.00;99.90
19945;DHT22;10134;50.952;6.930;2023-09-18T05:14:36;22.00;99.90
19945;DHT22;10134;50.952;6.930;2023-09-18T05:17:06;22.00;99.90
19945;DHT22;10134;50.952;6.930;2023-09-18T05:19:35;22.00;99.90
19945;DHT22;10134;50.952;6.930;2023-09-18T05:22:03;21.90;99.90
19945;DHT22;10134;50.952;6.930;2023-09-18T05:24:32;21.90;99.90
19945;DHT22;10134;50.952;6.930;2023-09-18T05:27:01;21.90;99.90
19945;DHT22;10134;50.952;6.930;2023-09-18T05:29:30;21.90;99.90
19945;DHT22;10134;50.952;6.930;2023-09-18T05:31:59;21.90;99.90
19945;DHT22;10134;50.952;6.930;2023-09-18T05:34:29;21.90;99.90
19945;DHT22;10134;50.952;6.930;2023-09-18T05:36:59;21.90;99.90
19945;DHT22;10134;50.952;6.930;2023-09-18T05:39:28;21.90;99.90
19945;DHT22;10134;50.952;6.930;2023-09-18T05:41:56;21.90;99.90
19945;DHT22;10134;50.952;6.930;2023-09-18T05:44:25;21.90;99.90
19945;DHT22;10134;50.952;6.930;2023-09-18T05:46:54;21.90;99.90
19945;DHT22;10134;50.952;6.930;2023-09-18T05:49:23;21.80;99.90
19945;DHT22;10134;50.952;6.930;2023-09-18T05:51:53;21.80;99.90
19945;DHT22;10134;50.952;6.930;2023-09-18T05:54:21;21.80;99.90
19945;DHT22;10134;50.952;6.930;2023-09-18T05:56:50;21.80;99.90
19945;DHT22;10134;50.952;6.930;2023-09-18T05:59:19;21.80;99.90
19945;DHT22;10134;50.952;6.930;2023-09-18T06:01:47;21.80;99.90
19945;DHT22;10134;50.952;6.930;2023-09-18T06:04:16;21.80;99.90
19945;DHT22;10134;50.952;6.930;2023-09-18T06:06:45;21.80;99.90
19945;DHT22;10134;50.952;6.930;2023-09-18T06:09:15;21.80;99.90
19945;DHT22;10134;50.952;6.930;2023-09-18T06:11:45;21.80;99.90
19945;DHT22;10134;50.952;6.930;2023-09-18T06:14:14;21.80;99.90
19945;DHT22;10134;50.952;6.930;2023-09-18T06:16:43;21.80;99.90
19945;DHT22;10134;50.952;6.930;2023-09-18T06:19:15;21.80;99.90
19945;DHT22;10134;50.952;6.930;2023-09-18T06:21:45;21.80;99.90
19945;DHT22;10134;50.952;6.930;2023-09-18T06:24:15;21.80;99.90
19945;DHT22;10134;50.952;6.930;2023-09-18T06:26:43;21.80;99.90
19945;DHT22;10134;50.952;6.930;2023-09-18T06:29:12;21.90;99.90
19945;DHT22;10134;50.952;6.930;2023-09-18T06:31:41;21.90;99.90
19945;DHT22;10134;50.952;6.930;2023-09-18T06:34:10;21.90;99.90
19945;DHT22;10134;50.952;6.930;2023-09-18T06:36:39;21.90;99.90
19945;DHT22;10134;50.952;6.930;2023-09-18T06:39:08;21.90;99.90
19945;DHT22;10134;50.952;6.930;2023-09-18T06:41:39;21.90;99.90
19945;DHT22;10134;50.952;6.930;2023-09-18T06:44:09;21.90;99.90
19945;DHT22;10134;50.952;6.930;2023-09-18T06:46:38;22.00;99.90
19945;DHT22;10134;50.952;6.930;2023-09-18T06:49:07;22.00;99.90
19945;DHT22;10134;50.952;6.930;2023-09-18T06:51:35;22.00;99.90
19945;DHT22;10134;50.952;6.930;2023-09-18T06:54:10;22.00;99.90
19945;DHT22;10134;50.952;6.930;2023-09-18T06:56:40;22.00;99.90
19945;DHT22;10134;50.952;6.930;2023-09-18T06:59:12;22.10;99.90
19945;DHT22;10134;50.952;6.930;2023-09-18T07:01:40;22.10;99.90
19945;DHT22;10134;50.952;6.930;2023-09-18T07:04:10;22.10;99.90
19945;DHT22;10134;50.952;6.930;2023-09-18T07:06:39;22.10;99.90
19945;DHT22;10134;50.952;6.930;2023-09-18T07:09:07;22.10;99.90
19945;DHT22;10134;50.952;6.930;2023-09-18T07:11:41;22.20;99.90
19945;DHT22;10134;50.952;6.930;2023-09-18T07:14:09;22.20;99.90
19945;DHT22;10134;50.952;6.930;2023-09-18T07:16:38;22.30;99.90
19945;DHT22;10134;50.952;6.930;2023-09-18T07:19:07;22.30;99.90
19945;DHT22;10134;50.952;6.930;2023-09-18T07:21:39;22.30;99.90
19945;DHT22;10134;50.952;6.930;2023-09-18T07:24:09;22.30;99.90
19945;DHT22;10134;50.952;6.930;2023-09-18T07:26:37;22.40;99.90
19945;DHT22;10134;50.952;6.930;2023-09-18T07:29:10;22.40;99.90
19945;DHT22;10134;50.952;6.930;2023-09-18T07:31:39;22.40;99.90
19945;DHT22;10134;50.952;6.930;2023-09-18T07:34:08;22.40;99.90
19945;DHT22;10134;50.952;6.930;2023-09-18T07:36:40;22.50;99.90
19945;DHT22;10134;50.952;6.930;2023-09-18T07:39:09;22.50;99.90
19945;DHT22;10134;50.952;6.930;2023-09-18T07:41:39;22.50;99.90
19945;DHT22;10134;50.952;6.930;2023-09-18T07:44:09;22.50;99.90
19945;DHT22;10134;50.952;6.930;2023-09-18T07:46:38;22.50;99.90
19945;DHT22;10134;50.952;6.930;2023-09-18T07:49:06;22.50;99.90
19945;DHT22;10134;50.952;6.930;2023-09-18T07:51:35;22.50;99.90
19945;DHT22;10134;50.952;6.930;2023-09-18T07:54:04;22.60;99.90
19945;DHT22;10134;50.952;6.930;2023-09-18T07:56:33;22.60;99.90
19945;DHT22;10134;50.952;6.930;2023-09-18T07:59:03;22.60;99.90
19945;DHT22;10134;50.952;6.930;2023-09-18T08:01:33;22.60;99.90
19945;DHT22;10134;50.952;6.930;2023-09-18T08:04:02;22.60;99.90
19945;DHT22;10134;50.952;6.930;2023-09-18T08:06:32;22.70;99.90
19945;DHT22;10134;50.952;6.930;2023-09-18T08:09:04;22.70;99.90
19945;DHT22;10134;50.952;6.930;2023-09-18T08:11:36;22.70;99.90
19945;DHT22;10134;50.952;6.930;2023-09-18T08:14:09;22.70;99.90
19945;DHT22;10134;50.952;6.930;2023-09-18T08:16:39;22.70;99.90
19945;DHT22;10134;50.952;6.930;2023-09-18T08:19:08;22.70;99.90
19945;DHT22;10134;50.952;6.930;2023-09-18T08:21:37;22.70;99.90
19945;DHT22;10134;50.952;6.930;2023-09-18T08:24:06;22.70;99.90
19945;DHT22;10134;50.952;6.930;2023-09-18T08:26:35;22.70;99.90
19945;DHT22;10134;50.952;6.930;2023-09-18T08:29:04;22.80;99.90
19945;DHT22;10134;50.952;6.930;2023-09-18T08:31:35;22.80;99.90
19945;DHT22;10134;50.952;6.930;2023-09-18T08:34:06;22.80;99.90
19945;DHT22;10134;50.952;6.930;2023-09-18T08:36:35;22.80;99.90
19945;DHT22;10134;50.952;6.930;2023-09-18T08:39:04;22.80;99.90
19945;DHT22;10134;50.952;6.930;2023-09-18T08:41:38;22.90;99.90
19945;DHT22;10134;50.952;6.930;2023-09-18T08:44:10;22.90;99.90
19945;DHT22;10134;50.952;6.930;2023-09-18T08:46:39;22.90;99.90
19945;DHT22;10134;50.952;6.930;2023-09-18T08:49:11;22.90;99.90
19945;DHT22;10134;50.952;6.930;2023-09-18T08:51:42;22.90;99.90
19945;DHT22;10134;50.952;6.930;2023-09-18T08:54:12;22.90;99.90
19945;DHT22;10134;50.952;6.930;2023-09-18T08:56:41;23.00;99.90
19945;DHT22;10134;50.952;6.930;2023-09-18T08:59:12;23.00;99.90
19945;DHT22;10134;50.952;6.930;2023-09-18T09:01:41;23.00;99.90
19945;DHT22;10134;50.952;6.930;2023-09-18T09:04:14;23.10;99.90
19945;DHT22;10134;50.952;6.930;2023-09-18T09:06:46;23.10;99.90
19945;DHT22;10134;50.952;6.930;2023-09-18T09:09:16;23.10;99.90
19945;DHT22;10134;50.952;6.930;2023-09-18T09:11:49;23.20;99.90
19945;DHT22;10134;50.952;6.930;2023-09-18T09:14:18;23.20;99.90
19945;DHT22;10134;50.952;6.930;2023-09-18T09:16:51;23.20;99.90
19945;DHT22;10134;50.952;6.930;2023-09-18T09:19:29;23.30;99.90
19945;DHT22;10134;50.952;6.930;2023-09-18T09:21:58;23.30;99.90
19945;DHT22;10134;50.952;6.930;2023-09-18T09:24:39;23.30;99.90
19945;DHT22;10134;50.952;6.930;2023-09-18T09:27:08;23.30;99.90
19945;DHT22;10134;50.952;6.930;2023-09-18T09:29:37;23.30;99.90
19945;DHT22;10134;50.952;6.930;2023-09-18T09:32:13;23.30;99.90
19945;DHT22;10134;50.952;6.930;2023-09-18T09:34:45;23.40;99.90
19945;DHT22;10134;50.952;6.930;2023-09-18T09:37:14;23.40;99.90
19945;DHT22;10134;50.952;6.930;2023-09-18T09:39:48;23.40;99.90
19945;DHT22;10134;50.952;6.930;2023-09-18T09:42:18;23.50;99.90
19945;DHT22;10134;50.952;6.930;2023-09-18T09:45:02;23.50;99.90
19945;DHT22;10134;50.952;6.930;2023-09-18T09:47:34;23.50;99.90
19945;DHT22;10134;50.952;6.930;2023-09-18T09:50:09;23.60;99.90
19945;DHT22;10134;50.952;6.930;2023-09-18T09:52:43;23.60;99.90
19945;DHT22;10134;50.952;6.930;2023-09-18T09:55:18;23.70;99.90
19945;DHT22;10134;50.952;6.930;2023-09-18T09:57:50;23.70;99.90
19945;DHT22;10134;50.952;6.930;2023-09-18T10:00:20;23.70;99.90
19945;DHT22;10134;50.952;6.930;2023-09-18T10:02:57;23.80;99.90
19945;DHT22;10134;50.952;6.930;2023-09-18T10:05:30;23.80;99.90
19945;DHT22;10134;50.952;6.930;2023-09-18T10:08:03;23.80;99.90
19945;DHT22;10134;50.952;6.930;2023-09-18T10:10:35;23.80;99.90
19945;DHT22;10134;50.952;6.930;2023-09-18T10:13:09;23.80;99.90
19945;DHT22;10134;50.952;6.930;2023-09-18T10:15:39;23.80;99.90
19945;DHT22;10134;50.952;6.930;2023-09-18T10:18:17;23.80;99.90
19945;DHT22;10134;50.952;6.930;2023-09-18T10:20:51;23.80;99.90
19945;DHT22;10134;50.952;6.930;2023-09-18T10:23:33;23.70;99.90
19945;DHT22;10134;50.952;6.930;2023-09-18T10:26:07;23.70;99.90
19945;DHT22;10134;50.952;6.930;2023-09-18T10:28:39;23.70;99.90
19945;DHT22;10134;50.952;6.930;2023-09-18T10:31:09;23.70;99.90
19945;DHT22;10134;50.952;6.930;2023-09-18T10:33:39;23.60;99.90
19945;DHT22;10134;50.952;6.930;2023-09-18T10:36:10;23.60;99.90
19945;DHT22;10134;50.952;6.930;2023-09-18T10:38:40;23.60;99.90
19945;DHT22;10134;50.952;6.930;2023-09-18T10:41:09;23.60;99.90
19945;DHT22;10134;50.952;6.930;2023-09-18T10:43:39;23.60;99.90
19945;DHT22;10134;50.952;6.930;2023-09-18T10:46:07;23.60;99.90
19945;DHT22;10134;50.952;6.930;2023-09-18T10:48:36;23.60;99.90
19945;DHT22;10134;50.952;6.930;2023-09-18T10:51:12;23.60;99.90
19945;DHT22;10134;50.952;6.930;2023-09-18T10:53:41;23.60;99.90
19945;DHT22;10134;50.952;6.930;2023-09-18T10:56:10;23.60;99.90
19945;DHT22;10134;50.952;6.930;2023-09-18T10:58:38;23.70;99.90
19945;DHT22;10134;50.952;6.930;2023-09-18T11:01:11;23.70;99.90
19945;DHT22;10134;50.952;6.930;2023-09-18T11:03:40;23.70;99.90
19945;DHT22;10134;50.952;6.930;2023-09-18T11:06:12;23.70;99.90
19945;DHT22;10134;50.952;6.930;2023-09-18T11:08:46;23.70;99.90
19945;DHT22;10134;50.952;6.930;2023-09-18T11:11:18;23.70;99.90
19945;DHT22;10134;50.952;6.930;2023-09-18T11:13:50;23.80;99.90
19945;DHT22;10134;50.952;6.930;2023-09-18T11:16:35;23.80;99.90
19945;DHT22;10134;50.952;6.930;2023-09-18T11:19:11;23.90;99.90
19945;DHT22;10134;50.952;6.930;2023-09-18T11:21:43;23.90;99.90
19945;DHT22;10134;50.952;6.930;2023-09-18T11:24:18;23.90;99.90
19945;DHT22;10134;50.952;6.930;2023-09-18T11:26:49;24.00;99.90
19945;DHT22;10134;50.952;6.930;2023-09-18T11:29:22;24.00;99.90
19945;DHT22;10134;50.952;6.930;2023-09-18T11:31:52;24.10;99.90
19945;DHT22;10134;50.952;6.930;2023-09-18T11:34:23;24.10;99.90
19945;DHT22;10134;50.952;6.930;2023-09-18T11:36:55;24.20;99.90
19945;DHT22;10134;50.952;6.930;2023-09-18T11:39:34;24.20;99.90
19945;DHT22;10134;50.952;6.930;2023-09-18T11:42:08;24.30;99.90
19945;DHT22;10134;50.952;6.930;2023-09-18T11:44:38;24.40;99.90
19945;DHT22;10134;50.952;6.930;2023-09-18T11:47:12;24.40;99.90
19945;DHT22;10134;50.952;6.930;2023-09-18T11:49:50;24.40;99.90
19945;DHT22;10134;50.952;6.930;2023-09-18T11:52:24;24.50;99.90
19945;DHT22;10134;50.952;6.930;2023-09-18T11:54:57;24.50;99.90
19945;DHT22;10134;50.952;6.930;2023-09-18T11:57:26;24.60;99.90
19945;DHT22;10134;50.952;6.930;2023-09-18T11:59:56;24.60;99.90
19945;DHT22;10134;50.952;6.930;2023-09-18T12:02:31;24.70;99.90
19945;DHT22;10134;50.952;6.930;2023-09-18T12:05:10;24.80;99.90
19945;DHT22;10134;50.952;6.930;2023-09-18T12:07:43;24.80;99.90
19945;DHT22;10134;50.952;6.930;2023-09-18T12:10:15;24.90;99.90
19945;DHT22;10134;50.952;6.930;2023-09-18T12:12:44;25.00;99.90
19945;DHT22;10134;50.952;6.930;2023-09-18T12:15:16;25.00;99.90
19945;DHT22;10134;50.952;6.930;2023-09-18T12:17:45;25.10;99.90
19945;DHT22;10134;50.952;6.930;2023-09-18T12:20:15;25.20;99.90
19945;DHT22;10134;50.952;6.930;2023-09-18T12:22:49;25.20;99.90
19945;DHT22;10134;50.952;6.930;2023-09-18T12:25:19;25.30;99.90
19945;DHT22;10134;50.952;6.930;2023-09-18T12:27:51;25.30;99.90
19945;DHT22;10134;50.952;6.930;2023-09-18T12:30:21;25.30;99.90
19945;DHT22;10134;50.952;6.930;2023-09-18T12:32:52;25.30;99.90
19945;DHT22;10134;50.952;6.930;2023-09-18T12:35:21;25.30;99.90
19945;DHT22;10134;50.952;6.930;2023-09-18T12:37:54;25.30;99.90
19945;DHT22;10134;50.952;6.930;2023-09-18T12:40:23;25.40;99.90
19945;DHT22;10134;50.952;6.930;2023-09-18T12:42:53;25.50;99.90
19945;DHT22;10134;50.952;6.930;2023-09-18T12:45:22;25.50;99.90
19945;DHT22;10134;50.952;6.930;2023-09-18T12:47:51;25.60;99.90
19945;DHT22;10134;50.952;6.930;2023-09-18T12:50:20;25.70;99.90
19945;DHT22;10134;50.952;6.930;2023-09-18T12:52:48;25.70;99.90
19945;DHT22;10134;50.952;6.930;2023-09-18T12:55:22;25.80;99.90
19945;DHT22;10134;50.952;6.930;2023-09-18T12:57:52;25.80;99.90
19945;DHT22;10134;50.952;6.930;2023-09-18T13:00:22;25.90;99.90
19945;DHT22;10134;50.952;6.930;2023-09-18T13:02:54;25.90;99.90
19945;DHT22;10134;50.952;6.930;2023-09-18T13:05:24;26.00;99.90
19945;DHT22;10134;50.952;6.930;2023-09-18T13:07:54;26.10;99.80
19945;DHT22;10134;50.952;6.930;2023-09-18T13:10:25;26.20;99.20
19945;DHT22;10134;50.952;6.930;2023-09-18T13:12:55;26.20;99.00
19945;DHT22;10134;50.952;6.930;2023-09-18T13:15:26;26.30;98.80
19945;DHT22;10134;50.952;6.930;2023-09-18T13:17:56;26.50;98.60
19945;DHT22;10134;50.952;6.930;2023-09-18T13:20:27;26.90;97.80
19945;DHT22;10134;50.952;6.930;2023-09-18T13:22:58;27.30;96.90
19945;DHT22;10134;50.952;6.930;2023-09-18T13:25:30;27.80;94.70
19945;DHT22;10134;50.952;6.930;2023-09-18T13:28:03;28.30;93.40
19945;DHT22;10134;50.952;6.930;2023-09-18T13:30:32;28.60;91.90
19945;DHT22;10134;50.952;6.930;2023-09-18T13:33:04;28.80;91.00
19945;DHT22;10134;50.952;6.930;2023-09-18T13:35:34;29.10;90.50
19945;DHT22;10134;50.952;6.930;2023-09-18T13:38:06;29.30;89.50
19945;DHT22;10134;50.952;6.930;2023-09-18T13:40:40;29.50;89.10
19945;DHT22;10134;50.952;6.930;2023-09-18T13:43:10;29.70;86.80
19945;DHT22;10134;50.952;6.930;2023-09-18T13:45:40;29.80;84.90
19945;DHT22;10134;50.952;6.930;2023-09-18T13:48:09;30.00;84.80
19945;DHT22;10134;50.952;6.930;2023-09-18T13:50:38;30.10;82.90
19945;DHT22;10134;50.952;6.930;2023-09-18T13:53:07;30.20;82.00
19945;DHT22;10134;50.952;6.930;2023-09-18T13:55:36;30.30;80.90
19945;DHT22;10134;50.952;6.930;2023-09-18T13:58:06;30.30;80.60
19945;DHT22;10134;50.952;6.930;2023-09-18T14:00:35;30.30;80.30
19945;DHT22;10134;50.952;6.930;2023-09-18T14:03:04;30.30;80.10
19945;DHT22;10134;50.952;6.930;2023-09-18T14:05:33;30.50;79.30
19945;DHT22;10134;50.952;6.930;2023-09-18T14:08:02;30.60;77.60
19945;DHT22;10134;50.952;6.930;2023-09-18T14:10:31;30.80;77.60
19945;DHT22;10134;50.952;6.930;2023-09-18T14:13:00;31.00;77.50
19945;DHT22;10134;50.952;6.930;2023-09-18T14:15:30;31.00;76.30
19945;DHT22;10134;50.952;6.930;2023-09-18T14:17:59;31.00;74.90
19945;DHT22;10134;50.952;6.930;2023-09-18T14:20:28;30.90;75.00
19945;DHT22;10134;50.952;6.930;2023-09-18T14:22:56;30.70;74.10
19945;DHT22;10134;50.952;6.930;2023-09-18T14:25:25;30.50;73.90
19945;DHT22;10134;50.952;6.930;2023-09-18T14:27:57;30.30;74.40
19945;DHT22;10134;50.952;6.930;2023-09-18T14:30:26;30.10;75.00
19945;DHT22;10134;50.952;6.930;2023-09-18T14:33:01;30.00;74.80
19945;DHT22;10134;50.952;6.930;2023-09-18T14:35:33;29.90;74.80
19945;DHT22;10134;50.952;6.930;2023-09-18T14:38:03;29.90;75.00
19945;DHT22;10134;50.952;6.930;2023-09-18T14:40:34;29.80;74.90
19945;DHT22;10134;50.952;6.930;2023-09-18T14:43:03;29.70;74.80
19945;DHT22;10134;50.952;6.930;2023-09-18T14:45:32;29.50;75.40
19945;DHT22;10134;50.952;6.930;2023-09-18T14:48:04;29.40;75.80
19945;DHT22;10134;50.952;6.930;2023-09-18T14:50:33;29.40;76.30
19945;DHT22;10134;50.952;6.930;2023-09-18T14:53:02;29.20;75.80
19945;DHT22;10134;50.952;6.930;2023-09-18T14:55:34;29.10;76.30
19945;DHT22;10134;50.952;6.930;2023-09-18T14:58:03;29.00;76.70
19945;DHT22;10134;50.952;6.930;2023-09-18T15:00:33;28.90;77.00
19945;DHT22;10134;50.952;6.930;2023-09-18T15:03:04;28.80;76.50
19945;DHT22;10134;50.952;6.930;2023-09-18T15:05:33;28.80;76.90
19945;DHT22;10134;50.952;6.930;2023-09-18T15:08:02;28.70;77.30
19945;DHT22;10134;50.952;6.930;2023-09-18T15:10:30;28.80;77.40
19945;DHT22;10134;50.952;6.930;2023-09-18T15:12:59;29.00;77.20
19945;DHT22;10134;50.952;6.930;2023-09-18T15:15:28;29.20;76.60
19945;DHT22;10134;50.952;6.930;2023-09-18T15:17:56;29.40;76.30
19945;DHT22;10134;50.952;6.930;2023-09-18T15:20:27;29.50;75.60
19945;DHT22;10134;50.952;6.930;2023-09-18T15:22:56;29.50;74.70
19945;DHT22;10134;50.952;6.930;2023-09-18T15:25:24;29.50;75.00
19945;DHT22;10134;50.952;6.930;2023-09-18T15:27:53;29.30;74.10
19945;DHT22;10134;50.952;6.930;2023-09-18T15:30:23;29.10;75.30
19945;DHT22;10134;50.952;6.930;2023-09-18T15:32:54;28.90;76.10
19945;DHT22;10134;50.952;6.930;2023-09-18T15:35:24;28.70;77.00
19945;DHT22;10134;50.952;6.930;2023-09-18T15:37:54;28.50;77.00
19945;DHT22;10134;50.952;6.930;2023-09-18T15:40:23;28.30;77.70
19945;DHT22;10134;50.952;6.930;2023-09-18T15:42:52;28.10;78.30
19945;DHT22;10134;50.952;6.930;2023-09-18T15:45:20;27.80;78.70
19945;DHT22;10134;50.952;6.930;2023-09-18T15:47:49;27.70;79.10